sensor_id;sensor_type;location;lat;lon;timestamp;pressure;altitude;pressure_sealevel;temperature;humidity
60852;BME280;48553;50.766;2.900;2023-07-24T00:00:45;99794.16;;;18.73;84.04
60852;BME280;48553;50.766;2.900;2023-07-24T00:03:45;99797.38;;;18.72;83.96
60852;BME280;48553;50.766;2.900;2023-07-24T00:06:46;99784.66;;;18.74;83.99
60852;BME280;48553;50.766;2.900;2023-07-24T00:09:46;99784.28;;;18.72;83.90
60852;BME280;48553;50.766;2.900;2023-07-24T00:12:47;99786.28;;;18.72;83.87
60852;BME280;48553;50.766;2.900;2023-07-24T00:15:47;99778.34;;;18.70;84.05
60852;BME280;48553;50.766;2.900;2023-07-24T00:18:48;99776.03;;;18.65;84.27
60852;BME280;48553;50.766;2.900;2023-07-24T00:21:48;99785.13;;;18.69;84.29
60852;BME280;48553;50.766;2.900;2023-07-24T00:24:48;99779.22;;;18.64;84.39
60852;BME280;48553;50.766;2.900;2023-07-24T00:27:49;99791.53;;;18.63;84.47
60852;BME280;48553;50.766;2.900;2023-07-24T00:30:49;99785.56;;;18.64;84.26
60852;BME280;48553;50.766;2.900;2023-07-24T00:33:50;99779.28;;;18.60;84.24
60852;BME280;48553;50.766;2.900;2023-07-24T00:36:50;99779.28;;;18.60;84.17
60852;BME280;48553;50.766;2.900;2023-07-24T00:39:51;99765.81;;;18.58;84.24
60852;BME280;48553;50.766;2.900;2023-07-24T00:42:51;99774.50;;;18.61;83.77
60852;BME280;48553;50.766;2.900;2023-07-24T00:45:52;99770.59;;;18.58;83.81
60852;BME280;48553;50.766;2.900;2023-07-24T00:48:54;99769.00;;;18.57;83.77
60852;BME280;48553;50.766;2.900;2023-07-24T00:51:55;99761.50;;;18.54;83.92
60852;BME280;48553;50.766;2.900;2023-07-24T00:54:55;99775.00;;;18.52;84.02
60852;BME280;48553;50.766;2.900;2023-07-24T00:57:57;99765.13;;;18.51;83.90
60852;BME280;48553;50.766;2.900;2023-07-24T01:00:58;99767.09;;;18.50;84.08
60852;BME280;48553;50.766;2.900;2023-07-24T01:03:59;99761.53;;;18.50;83.90
60852;BME280;48553;50.766;2.900;2023-07-24T01:07:01;99754.06;;;18.47;84.09
60852;BME280;48553;50.766;2.900;2023-07-24T01:10:02;99747.72;;;18.47;83.88
60852;BME280;48553;50.766;2.900;2023-07-24T01:13:18;99746.56;;;18.44;83.75
60852;BME280;48553;50.766;2.900;2023-07-24T01:16:21;99737.44;;;18.44;83.92
60852;BME280;48553;50.766;2.900;2023-07-24T01:19:36;99725.19;;;18.41;83.96
60852;BME280;48553;50.766;2.900;2023-07-24T01:22:54;99725.56;;;18.43;83.81
60852;BME280;48553;50.766;2.900;2023-07-24T01:25:59;99715.22;;;18.44;83.59
60852;BME280;48553;50.766;2.900;2023-07-24T01:28:59;99725.16;;;18.45;83.72
60852;BME280;48553;50.766;2.900;2023-07-24T01:32:00;99718.84;;;18.41;83.63
60852;BME280;48553;50.766;2.900;2023-07-24T01:35:00;99716.47;;;18.39;83.94
60852;BME280;48553;50.766;2.900;2023-07-24T01:38:01;99714.84;;;18.42;83.72
60852;BME280;48553;50.766;2.900;2023-07-24T01:41:03;99712.09;;;18.42;83.65
60852;BME280;48553;50.766;2.900;2023-07-24T01:44:05;99727.16;;;18.41;83.72
60852;BME280;48553;50.766;2.900;2023-07-24T01:47:05;99710.53;;;18.41;83.53
60852;BME280;48553;50.766;2.900;2023-07-24T01:50:06;99713.31;;;18.41;83.38
60852;BME280;48553;50.766;2.900;2023-07-24T01:53:07;99717.28;;;18.40;83.25
60852;BME280;48553;50.766;2.900;2023-07-24T01:56:07;99719.69;;;18.38;83.49
60852;BME280;48553;50.766;2.900;2023-07-24T01:59:07;99721.66;;;18.37;83.38
60852;BME280;48553;50.766;2.900;2023-07-24T02:02:08;99707.00;;;18.36;83.52
60852;BME280;48553;50.766;2.900;2023-07-24T02:05:08;99710.63;;;18.33;83.48
60852;BME280;48553;50.766;2.900;2023-07-24T02:08:09;99705.06;;;18.33;83.26
60852;BME280;48553;50.766;2.900;2023-07-24T02:11:09;99705.06;;;18.33;83.22
60852;BME280;48553;50.766;2.900;2023-07-24T02:14:12;99704.66;;;18.35;83.19
60852;BME280;48553;50.766;2.900;2023-07-24T02:17:13;99702.69;;;18.32;83.31
60852;BME280;48553;50.766;2.900;2023-07-24T02:20:13;99705.09;;;18.30;83.44
60852;BME280;48553;50.766;2.900;2023-07-24T02:23:14;99698.41;;;18.27;83.49
60852;BME280;48553;50.766;2.900;2023-07-24T02:26:14;99695.63;;;18.27;83.46
60852;BME280;48553;50.766;2.900;2023-07-24T02:29:15;99707.94;;;18.26;83.67
60852;BME280;48553;50.766;2.900;2023-07-24T02:32:15;99704.34;;;18.26;83.38
60852;BME280;48553;50.766;2.900;2023-07-24T02:35:16;99697.63;;;18.27;82.98
60852;BME280;48553;50.766;2.900;2023-07-24T02:38:18;99707.56;;;18.24;83.27
60852;BME280;48553;50.766;2.900;2023-07-24T02:41:19;99701.22;;;18.24;83.34
60852;BME280;48553;50.766;2.900;2023-07-24T02:44:19;99714.28;;;18.23;83.45
60852;BME280;48553;50.766;2.900;2023-07-24T02:47:19;99710.72;;;18.23;83.45
60852;BME280;48553;50.766;2.900;2023-07-24T02:50:20;99700.03;;;18.21;83.38
60852;BME280;48553;50.766;2.900;2023-07-24T02:53:20;99692.53;;;18.22;83.33
60852;BME280;48553;50.766;2.900;2023-07-24T02:56:21;99698.06;;;18.22;83.22
60852;BME280;48553;50.766;2.900;2023-07-24T02:59:21;99696.91;;;18.19;83.59
60852;BME280;48553;50.766;2.900;2023-07-24T03:02:22;99696.13;;;18.19;83.46
60852;BME280;48553;50.766;2.900;2023-07-24T03:05:22;99708.78;;;18.20;83.45
60852;BME280;48553;50.766;2.900;2023-07-24T03:08:22;99696.53;;;18.17;83.52
60852;BME280;48553;50.766;2.900;2023-07-24T03:11:23;99702.09;;;18.17;83.58
60852;BME280;48553;50.766;2.900;2023-07-24T03:14:23;99711.59;;;18.16;83.58
60852;BME280;48553;50.766;2.900;2023-07-24T03:17:24;99698.50;;;18.16;83.58
60852;BME280;48553;50.766;2.900;2023-07-24T03:20:24;99694.97;;;18.16;83.58
60852;BME280;48553;50.766;2.900;2023-07-24T03:23:24;99701.72;;;18.15;83.64
60852;BME280;48553;50.766;2.900;2023-07-24T03:26:25;99707.25;;;18.15;83.61
60852;BME280;48553;50.766;2.900;2023-07-24T03:29:26;99699.34;;;18.13;83.67
60852;BME280;48553;50.766;2.900;2023-07-24T03:32:27;99701.34;;;18.13;83.73
60852;BME280;48553;50.766;2.900;2023-07-24T03:35:27;99696.56;;;18.13;83.69
60852;BME280;48553;50.766;2.900;2023-07-24T03:38:27;99694.19;;;18.12;83.64
60852;BME280;48553;50.766;2.900;2023-07-24T03:41:28;99693.03;;;18.13;83.64
60852;BME280;48553;50.766;2.900;2023-07-24T03:44:28;99689.47;;;18.12;83.55
60852;BME280;48553;50.766;2.900;2023-07-24T03:47:29;99691.88;;;18.10;83.81
60852;BME280;48553;50.766;2.900;2023-07-24T03:50:29;99695.41;;;18.11;83.68
60852;BME280;48553;50.766;2.900;2023-07-24T03:53:30;99694.19;;;18.12;83.53
60852;BME280;48553;50.766;2.900;2023-07-24T03:56:30;99691.44;;;18.12;83.56
60852;BME280;48553;50.766;2.900;2023-07-24T03:59:31;99687.09;;;18.11;83.64
60852;BME280;48553;50.766;2.900;2023-07-24T04:02:31;99689.09;;;18.10;83.63
60852;BME280;48553;50.766;2.900;2023-07-24T04:05:34;99694.63;;;18.10;83.43
60852;BME280;48553;50.766;2.900;2023-07-24T04:08:35;99696.25;;;18.08;83.84
60852;BME280;48553;50.766;2.900;2023-07-24T04:11:35;99691.50;;;18.08;83.83
60852;BME280;48553;50.766;2.900;2023-07-24T04:14:38;99694.28;;;18.05;84.05
60852;BME280;48553;50.766;2.900;2023-07-24T04:17:38;99700.25;;;18.03;84.14
60852;BME280;48553;50.766;2.900;2023-07-24T04:20:40;99699.88;;;18.01;84.16
60852;BME280;48553;50.766;2.900;2023-07-24T04:23:41;99693.09;;;18.06;83.99
60852;BME280;48553;50.766;2.900;2023-07-24T04:26:41;99692.72;;;18.04;84.12
60852;BME280;48553;50.766;2.900;2023-07-24T04:29:42;99696.69;;;18.03;84.19
60852;BME280;48553;50.766;2.900;2023-07-24T04:32:43;99693.13;;;18.02;84.27
60852;BME280;48553;50.766;2.900;2023-07-24T04:35:47;99687.59;;;18.02;84.14
60852;BME280;48553;50.766;2.900;2023-07-24T04:38:48;99688.38;;;18.03;84.03
60852;BME280;48553;50.766;2.900;2023-07-24T04:41:48;99677.72;;;17.98;84.51
60852;BME280;48553;50.766;2.900;2023-07-24T04:44:49;99685.66;;;17.99;84.50
60852;BME280;48553;50.766;2.900;2023-07-24T04:47:51;99697.50;;;18.00;84.47
60852;BME280;48553;50.766;2.900;2023-07-24T04:50:55;99690.41;;;17.99;84.40
60852;BME280;48553;50.766;2.900;2023-07-24T04:53:56;99704.28;;;17.99;84.46
60852;BME280;48553;50.766;2.900;2023-07-24T04:56:56;99706.22;;;18.02;84.18
60852;BME280;48553;50.766;2.900;2023-07-24T04:59:57;99707.41;;;18.01;84.42
60852;BME280;48553;50.766;2.900;2023-07-24T05:02:57;99708.59;;;18.00;84.66
60852;BME280;48553;50.766;2.900;2023-07-24T05:05:57;99715.72;;;18.01;84.51
60852;BME280;48553;50.766;2.900;2023-07-24T05:08:58;99713.31;;;18.03;84.30
60852;BME280;48553;50.766;2.900;2023-07-24T05:11:58;99707.78;;;18.03;84.44
60852;BME280;48553;50.766;2.900;2023-07-24T05:14:59;99718.88;;;18.03;84.56
60852;BME280;48553;50.766;2.900;2023-07-24T05:17:59;99708.59;;;18.00;85.04
60852;BME280;48553;50.766;2.900;2023-07-24T05:21:00;99710.97;;;18.01;84.71
60852;BME280;48553;50.766;2.900;2023-07-24T05:24:00;99710.53;;;18.03;85.03
60852;BME280;48553;50.766;2.900;2023-07-24T05:27:01;99723.22;;;18.04;84.81
60852;BME280;48553;50.766;2.900;2023-07-24T05:30:01;99711.34;;;18.03;85.07
60852;BME280;48553;50.766;2.900;2023-07-24T05:33:02;99715.69;;;18.04;85.04
60852;BME280;48553;50.766;2.900;2023-07-24T05:36:03;99722.78;;;18.05;85.20
60852;BME280;48553;50.766;2.900;2023-07-24T05:39:05;99715.69;;;18.04;85.33
60852;BME280;48553;50.766;2.900;2023-07-24T05:42:05;99722.78;;;18.05;85.48
60852;BME280;48553;50.766;2.900;2023-07-24T05:45:06;99721.63;;;18.03;85.66
60852;BME280;48553;50.766;2.900;2023-07-24T05:48:07;99718.88;;;18.03;85.96
60852;BME280;48553;50.766;2.900;2023-07-24T05:51:07;99723.22;;;18.04;85.71
60852;BME280;48553;50.766;2.900;2023-07-24T05:54:07;99723.22;;;18.04;85.51
60852;BME280;48553;50.766;2.900;2023-07-24T05:57:08;99721.22;;;18.04;85.75
60852;BME280;48553;50.766;2.900;2023-07-24T06:00:08;99726.78;;;18.04;85.82
60852;BME280;48553;50.766;2.900;2023-07-24T06:03:09;99716.91;;;18.03;85.79
60852;BME280;48553;50.766;2.900;2023-07-24T06:06:09;99720.47;;;18.04;85.71
60852;BME280;48553;50.766;2.900;2023-07-24T06:09:09;99719.66;;;18.03;85.63
60852;BME280;48553;50.766;2.900;2023-07-24T06:12:10;99725.22;;;18.03;85.73
60852;BME280;48553;50.766;2.900;2023-07-24T06:15:10;99714.13;;;18.03;85.73
60852;BME280;48553;50.766;2.900;2023-07-24T06:18:11;99715.69;;;18.04;85.89
60852;BME280;48553;50.766;2.900;2023-07-24T06:21:11;99707.75;;;18.06;85.54
60852;BME280;48553;50.766;2.900;2023-07-24T06:24:12;99717.63;;;18.07;85.50
60852;BME280;48553;50.766;2.900;2023-07-24T06:27:13;99713.28;;;18.06;85.89
60852;BME280;48553;50.766;2.900;2023-07-24T06:30:13;99709.31;;;18.07;86.08
60852;BME280;48553;50.766;2.900;2023-07-24T06:33:14;99716.81;;;18.10;86.12
60852;BME280;48553;50.766;2.900;2023-07-24T06:36:14;99722.75;;;18.12;86.03
60852;BME280;48553;50.766;2.900;2023-07-24T06:39:15;99719.53;;;18.14;86.92
60852;BME280;48553;50.766;2.900;2023-07-24T06:42:15;99717.97;;;18.13;87.03
60852;BME280;48553;50.766;2.900;2023-07-24T06:45:16;99716.75;;;18.18;86.58
60852;BME280;48553;50.766;2.900;2023-07-24T06:48:16;99708.88;;;18.12;86.92
60852;BME280;48553;50.766;2.900;2023-07-24T06:51:17;99720.34;;;18.14;86.98
60852;BME280;48553;50.766;2.900;2023-07-24T06:54:17;99716.75;;;18.18;86.66
60852;BME280;48553;50.766;2.900;2023-07-24T06:57:17;99714.75;;;18.18;86.94
60852;BME280;48553;50.766;2.900;2023-07-24T07:00:18;99728.22;;;18.20;86.74
60852;BME280;48553;50.766;2.900;2023-07-24T07:03:18;99717.53;;;18.18;86.69
60852;BME280;48553;50.766;2.900;2023-07-24T07:06:19;99711.56;;;18.20;86.48
60852;BME280;48553;50.766;2.900;2023-07-24T07:09:19;99711.94;;;18.22;86.61
60852;BME280;48553;50.766;2.900;2023-07-24T07:12:20;99711.13;;;18.21;86.55
60852;BME280;48553;50.766;2.900;2023-07-24T07:15:20;99719.44;;;18.25;86.63
60852;BME280;48553;50.766;2.900;2023-07-24T07:18:21;99703.19;;;18.23;86.86
60852;BME280;48553;50.766;2.900;2023-07-24T07:21:21;99697.22;;;18.28;86.22
60852;BME280;48553;50.766;2.900;2023-07-24T07:24:21;99700.75;;;18.29;86.18
60852;BME280;48553;50.766;2.900;2023-07-24T07:27:22;99707.47;;;18.31;85.94
60852;BME280;48553;50.766;2.900;2023-07-24T07:30:22;99709.03;;;18.32;85.73
60852;BME280;48553;50.766;2.900;2023-07-24T07:33:23;99705.44;;;18.35;85.50
60852;BME280;48553;50.766;2.900;2023-07-24T07:36:24;99694.38;;;18.32;85.57
60852;BME280;48553;50.766;2.900;2023-07-24T07:39:25;99710.63;;;18.33;85.59
60852;BME280;48553;50.766;2.900;2023-07-24T07:42:25;99720.13;;;18.32;85.40
60852;BME280;48553;50.766;2.900;2023-07-24T07:45:26;99715.41;;;18.29;85.21
60852;BME280;48553;50.766;2.900;2023-07-24T07:48:26;99715.41;;;18.29;85.23
60852;BME280;48553;50.766;2.900;2023-07-24T07:51:27;99719.34;;;18.32;84.99
60852;BME280;48553;50.766;2.900;2023-07-24T07:54:27;99713.38;;;18.33;84.95
60852;BME280;48553;50.766;2.900;2023-07-24T07:57:28;99709.03;;;18.32;85.01
60852;BME280;48553;50.766;2.900;2023-07-24T08:00:28;99709.38;;;18.38;84.36
60852;BME280;48553;50.766;2.900;2023-07-24T08:03:28;99714.91;;;18.38;84.71
60852;BME280;48553;50.766;2.900;2023-07-24T08:06:29;99710.94;;;18.39;84.63
60852;BME280;48553;50.766;2.900;2023-07-24T08:09:29;99703.75;;;18.42;84.79
60852;BME280;48553;50.766;2.900;2023-07-24T08:12:30;99689.06;;;18.45;84.81
60852;BME280;48553;50.766;2.900;2023-07-24T08:15:36;99677.56;;;18.46;84.61
60852;BME280;48553;50.766;2.900;2023-07-24T08:18:37;99676.72;;;18.49;84.82
60852;BME280;48553;50.766;2.900;2023-07-24T08:21:37;99679.09;;;18.51;84.47
60852;BME280;48553;50.766;2.900;2023-07-24T08:24:39;99674.69;;;18.53;84.51
60852;BME280;48553;50.766;2.900;2023-07-24T08:27:39;99679.44;;;18.53;84.84
60852;BME280;48553;50.766;2.900;2023-07-24T08:30:40;99677.00;;;18.58;84.49
60852;BME280;48553;50.766;2.900;2023-07-24T08:33:40;99686.44;;;18.65;84.75
60852;BME280;48553;50.766;2.900;2023-07-24T08:36:40;99676.44;;;18.71;85.73
60852;BME280;48553;50.766;2.900;2023-07-24T08:39:41;99670.84;;;18.74;86.12
60852;BME280;48553;50.766;2.900;2023-07-24T08:42:44;99670.81;;;18.78;85.80
60852;BME280;48553;50.766;2.900;2023-07-24T08:45:46;99671.13;;;18.84;86.22
60852;BME280;48553;50.766;2.900;2023-07-24T08:48:47;99672.28;;;18.86;86.00
60852;BME280;48553;50.766;2.900;2023-07-24T08:51:48;99681.75;;;18.89;86.34
60852;BME280;48553;50.766;2.900;2023-07-24T08:54:48;99674.59;;;18.91;85.87
60852;BME280;48553;50.766;2.900;2023-07-24T08:57:50;99674.59;;;18.91;85.68
60852;BME280;48553;50.766;2.900;2023-07-24T09:00:50;99675.41;;;18.92;85.21
60852;BME280;48553;50.766;2.900;2023-07-24T09:03:51;99669.00;;;18.95;84.46
60852;BME280;48553;50.766;2.900;2023-07-24T09:06:52;99671.34;;;18.96;84.65
60852;BME280;48553;50.766;2.900;2023-07-24T09:09:53;99672.13;;;18.97;84.71
60852;BME280;48553;50.766;2.900;2023-07-24T09:12:54;99665.38;;;18.98;84.66
60852;BME280;48553;50.766;2.900;2023-07-24T09:15:55;99675.66;;;19.01;84.00
60852;BME280;48553;50.766;2.900;2023-07-24T09:18:56;99665.72;;;19.00;84.40
60852;BME280;48553;50.766;2.900;2023-07-24T09:22:14;99671.66;;;19.02;84.49
60852;BME280;48553;50.766;2.900;2023-07-24T09:25:15;99667.63;;;19.07;84.68
60852;BME280;48553;50.766;2.900;2023-07-24T09:28:16;99663.94;;;19.13;84.59
60852;BME280;48553;50.766;2.900;2023-07-24T09:31:17;99673.75;;;19.22;84.33
60852;BME280;48553;50.766;2.900;2023-07-24T09:34:18;99667.34;;;19.25;83.60
60852;BME280;48553;50.766;2.900;2023-07-24T09:37:34;99676.41;;;19.29;83.11
60852;BME280;48553;50.766;2.900;2023-07-24T09:43:41;99673.00;;;19.41;83.14
60852;BME280;48553;50.766;2.900;2023-07-24T09:46:43;99674.47;;;19.49;83.08
60852;BME280;48553;50.766;2.900;2023-07-24T09:49:43;99681.47;;;19.57;82.59
60852;BME280;48553;50.766;2.900;2023-07-24T09:52:44;99683.28;;;19.71;82.32
60852;BME280;48553;50.766;2.900;2023-07-24T09:55:51;99681.06;;;19.83;81.62
60852;BME280;48553;50.766;2.900;2023-07-24T09:58:53;99678.22;;;19.86;81.36
60852;BME280;48553;50.766;2.900;2023-07-24T10:01:55;99677.44;;;19.86;80.50
60852;BME280;48553;50.766;2.900;2023-07-24T10:04:56;99685.38;;;19.87;81.21
60852;BME280;48553;50.766;2.900;2023-07-24T10:07:57;99678.22;;;19.86;80.68
60852;BME280;48553;50.766;2.900;2023-07-24T10:11:01;99683.41;;;19.84;80.49
60852;BME280;48553;50.766;2.900;2023-07-24T10:14:02;99691.03;;;19.80;80.14
60852;BME280;48553;50.766;2.900;2023-07-24T10:17:02;99694.31;;;19.75;79.63
60852;BME280;48553;50.766;2.900;2023-07-24T10:20:08;99686.47;;;19.70;79.19
60852;BME280;48553;50.766;2.900;2023-07-24T10:23:10;99690.53;;;19.61;79.66
60852;BME280;48553;50.766;2.900;2023-07-24T10:26:11;99687.84;;;19.58;79.43
60852;BME280;48553;50.766;2.900;2023-07-24T10:29:13;99688.66;;;19.55;78.58
60852;BME280;48553;50.766;2.900;2023-07-24T10:32:17;99683.19;;;19.51;78.56
60852;BME280;48553;50.766;2.900;2023-07-24T10:35:18;99692.34;;;19.48;78.27
60852;BME280;48553;50.766;2.900;2023-07-24T10:38:33;99696.38;;;19.44;78.32
60852;BME280;48553;50.766;2.900;2023-07-24T10:41:35;99715.97;;;19.36;78.45
60852;BME280;48553;50.766;2.900;2023-07-24T10:44:37;99701.41;;;19.29;79.33
60852;BME280;48553;50.766;2.900;2023-07-24T10:47:37;99718.50;;;19.27;79.18
60852;BME280;48553;50.766;2.900;2023-07-24T10:50:41;99720.78;;;19.32;80.07
60852;BME280;48553;50.766;2.900;2023-07-24T10:53:46;99720.63;;;19.43;81.79
60852;BME280;48553;50.766;2.900;2023-07-24T10:56:46;99725.13;;;19.60;82.54
60852;BME280;48553;50.766;2.900;2023-07-24T10:59:47;99721.25;;;19.78;82.82
60852;BME280;48553;50.766;2.900;2023-07-24T11:02:47;99724.16;;;19.94;82.25
60852;BME280;48553;50.766;2.900;2023-07-24T11:05:48;99725.94;;;20.05;81.56
60852;BME280;48553;50.766;2.900;2023-07-24T11:08:52;99741.94;;;20.20;81.71
60852;BME280;48553;50.766;2.900;2023-07-24T11:11:53;99733.03;;;20.29;81.47
60852;BME280;48553;50.766;2.900;2023-07-24T11:14:53;99737.69;;;20.36;81.06
60852;BME280;48553;50.766;2.900;2023-07-24T11:17:54;99740.25;;;20.47;81.58
60852;BME280;48553;50.766;2.900;2023-07-24T11:20:55;99742.41;;;20.59;81.14
60852;BME280;48553;50.766;2.900;2023-07-24T11:23:56;99745.13;;;20.62;80.83
60852;BME280;48553;50.766;2.900;2023-07-24T11:26:56;99753.50;;;20.62;80.50
60852;BME280;48553;50.766;2.900;2023-07-24T11:29:57;99752.00;;;20.58;79.95
60852;BME280;48553;50.766;2.900;2023-07-24T11:32:59;99750.34;;;20.60;79.55
60852;BME280;48553;50.766;2.900;2023-07-24T11:36:01;99750.19;;;20.68;78.01
60852;BME280;48553;50.766;2.900;2023-07-24T11:39:02;99751.69;;;20.72;77.52
60852;BME280;48553;50.766;2.900;2023-07-24T11:42:04;99751.69;;;20.72;76.99
60852;BME280;48553;50.766;2.900;2023-07-24T11:45:06;99741.41;;;20.69;77.02
60852;BME280;48553;50.766;2.900;2023-07-24T11:48:11;99753.84;;;20.64;76.33
60852;BME280;48553;50.766;2.900;2023-07-24T11:51:12;99757.41;;;20.65;76.26
60852;BME280;48553;50.766;2.900;2023-07-24T11:54:13;99746.31;;;20.81;76.07
60852;BME280;48553;50.766;2.900;2023-07-24T11:57:15;99748.75;;;21.16;75.88
60852;BME280;48553;50.766;2.900;2023-07-24T12:00:21;99742.09;;;21.46;75.24
60852;BME280;48553;50.766;2.900;2023-07-24T12:03:26;99757.72;;;21.76;73.17
60852;BME280;48553;50.766;2.900;2023-07-24T12:06:26;99760.09;;;22.07;72.83
60852;BME280;48553;50.766;2.900;2023-07-24T12:09:30;99749.44;;;22.35;72.36
60852;BME280;48553;50.766;2.900;2023-07-24T12:12:41;99764.44;;;22.54;71.12
60852;BME280;48553;50.766;2.900;2023-07-24T12:15:42;99756.34;;;22.72;70.22
60852;BME280;48553;50.766;2.900;2023-07-24T12:18:43;99757.72;;;22.93;70.47
60852;BME280;48553;50.766;2.900;2023-07-24T12:21:43;99745.75;;;22.92;69.62
60852;BME280;48553;50.766;2.900;2023-07-24T12:24:44;99746.88;;;22.95;69.97
60852;BME280;48553;50.766;2.900;2023-07-24T12:27:44;99749.31;;;22.93;69.55
60852;BME280;48553;50.766;2.900;2023-07-24T12:30:44;99749.06;;;23.17;67.21
60852;BME280;48553;50.766;2.900;2023-07-24T12:33:45;99740.09;;;23.22;68.70
60852;BME280;48553;50.766;2.900;2023-07-24T12:36:45;99737.63;;;23.37;67.91
60852;BME280;48553;50.766;2.900;2023-07-24T12:39:48;99731.44;;;23.54;66.32
60852;BME280;48553;50.766;2.900;2023-07-24T12:42:49;99739.16;;;23.76;65.87
60852;BME280;48553;50.766;2.900;2023-07-24T12:45:49;99741.59;;;23.87;65.30
60852;BME280;48553;50.766;2.900;2023-07-24T12:48:50;99749.19;;;23.86;64.70
60852;BME280;48553;50.766;2.900;2023-07-24T12:51:50;99750.00;;;23.61;66.02
60852;BME280;48553;50.766;2.900;2023-07-24T12:54:51;99753.38;;;23.43;66.21
60852;BME280;48553;50.766;2.900;2023-07-24T12:57:51;99751.06;;;23.29;66.41
60852;BME280;48553;50.766;2.900;2023-07-24T13:00:51;99750.69;;;23.14;66.63
60852;BME280;48553;50.766;2.900;2023-07-24T13:03:52;99761.97;;;22.98;66.43
60852;BME280;48553;50.766;2.900;2023-07-24T13:06:52;99757.16;;;22.85;66.84
60852;BME280;48553;50.766;2.900;2023-07-24T13:09:53;99760.91;;;22.66;67.72
60852;BME280;48553;50.766;2.900;2023-07-24T13:12:54;99765.91;;;22.58;67.16
60852;BME280;48553;50.766;2.900;2023-07-24T13:15:54;99774.38;;;22.55;67.63
60852;BME280;48553;50.766;2.900;2023-07-24T13:18:55;99755.72;;;22.51;67.06
60852;BME280;48553;50.766;2.900;2023-07-24T13:21:55;99757.59;;;22.42;67.16
60852;BME280;48553;50.766;2.900;2023-07-24T13:24:55;99765.03;;;22.32;67.31
60852;BME280;48553;50.766;2.900;2023-07-24T13:27:56;99764.88;;;22.23;67.51
60852;BME280;48553;50.766;2.900;2023-07-24T13:30:56;99764.25;;;22.31;67.39
60852;BME280;48553;50.766;2.900;2023-07-24T13:33:57;99760.31;;;22.58;67.69
60852;BME280;48553;50.766;2.900;2023-07-24T13:36:57;99755.41;;;23.04;66.57
60852;BME280;48553;50.766;2.900;2023-07-24T13:39:58;99749.81;;;23.30;65.61
60852;BME280;48553;50.766;2.900;2023-07-24T13:42:58;99756.31;;;23.27;65.66
60852;BME280;48553;50.766;2.900;2023-07-24T13:45:59;99759.09;;;23.27;66.38
60852;BME280;48553;50.766;2.900;2023-07-24T13:48:59;99756.41;;;23.10;67.38
60852;BME280;48553;50.766;2.900;2023-07-24T13:51:59;99757.84;;;22.89;67.88
60852;BME280;48553;50.766;2.900;2023-07-24T13:55:00;99751.56;;;22.85;66.29
60852;BME280;48553;50.766;2.900;2023-07-24T13:58:00;99741.25;;;22.82;65.70
60852;BME280;48553;50.766;2.900;2023-07-24T14:01:01;99749.19;;;22.84;66.23
60852;BME280;48553;50.766;2.900;2023-07-24T14:04:01;99758.91;;;22.79;65.63
60852;BME280;48553;50.766;2.900;2023-07-24T14:07:02;99749.53;;;22.86;64.19
60852;BME280;48553;50.766;2.900;2023-07-24T14:10:03;99751.56;;;22.98;64.44
60852;BME280;48553;50.766;2.900;2023-07-24T14:13:03;99759.81;;;22.89;64.87
60852;BME280;48553;50.766;2.900;2023-07-24T14:16:04;99756.44;;;22.68;65.14
60852;BME280;48553;50.766;2.900;2023-07-24T14:19:04;99763.84;;;22.46;66.29
60852;BME280;48553;50.766;2.900;2023-07-24T14:22:05;99771.84;;;22.31;67.53
60852;BME280;48553;50.766;2.900;2023-07-24T14:25:05;99767.28;;;22.21;69.02
60852;BME280;48553;50.766;2.900;2023-07-24T14:28:06;99768.38;;;22.10;69.14
60852;BME280;48553;50.766;2.900;2023-07-24T14:31:06;99770.91;;;22.05;69.05
60852;BME280;48553;50.766;2.900;2023-07-24T14:34:07;99769.00;;;22.02;69.32
60852;BME280;48553;50.766;2.900;2023-07-24T14:37:11;99769.88;;;21.99;69.71
60852;BME280;48553;50.766;2.900;2023-07-24T14:40:11;99777.13;;;21.96;69.59
60852;BME280;48553;50.766;2.900;2023-07-24T14:43:12;99781.66;;;21.90;69.71
60852;BME280;48553;50.766;2.900;2023-07-24T14:46:12;99782.69;;;21.80;69.49
60852;BME280;48553;50.766;2.900;2023-07-24T14:49:13;99786.44;;;21.73;69.44
60852;BME280;48553;50.766;2.900;2023-07-24T14:52:13;99781.31;;;21.72;69.07
60852;BME280;48553;50.766;2.900;2023-07-24T14:55:14;99781.31;;;21.72;69.46
60852;BME280;48553;50.766;2.900;2023-07-24T14:58:14;99787.25;;;21.74;70.25
60852;BME280;48553;50.766;2.900;2023-07-24T15:01:15;99783.34;;;21.71;69.95
60852;BME280;48553;50.766;2.900;2023-07-24T15:04:15;99780.44;;;21.75;69.42
60852;BME280;48553;50.766;2.900;2023-07-24T15:07:16;99787.94;;;21.78;69.50
60852;BME280;48553;50.766;2.900;2023-07-24T15:10:16;99787.16;;;21.77;69.57
60852;BME280;48553;50.766;2.900;2023-07-24T15:13:16;99787.25;;;21.74;69.98
60852;BME280;48553;50.766;2.900;2023-07-24T15:16:17;99795.00;;;21.66;69.65
60852;BME280;48553;50.766;2.900;2023-07-24T15:19:20;99804.66;;;21.61;70.05
60852;BME280;48553;50.766;2.900;2023-07-24T15:22:21;99800.84;;;21.55;69.81
60852;BME280;48553;50.766;2.900;2023-07-24T15:25:23;99814.59;;;21.46;69.83
60852;BME280;48553;50.766;2.900;2023-07-24T15:28:23;99810.72;;;21.40;70.26
60852;BME280;48553;50.766;2.900;2023-07-24T15:31:24;99816.00;;;21.34;69.43
60852;BME280;48553;50.766;2.900;2023-07-24T15:34:24;99811.66;;;21.33;70.01
60852;BME280;48553;50.766;2.900;2023-07-24T15:37:25;99808.38;;;21.38;69.84
60852;BME280;48553;50.766;2.900;2023-07-24T15:40:26;99817.88;;;21.41;69.42
60852;BME280;48553;50.766;2.900;2023-07-24T15:43:26;99812.31;;;21.41;69.18
60852;BME280;48553;50.766;2.900;2023-07-24T15:46:27;99815.47;;;21.43;69.26
60852;BME280;48553;50.766;2.900;2023-07-24T15:49:31;99821.03;;;21.43;69.15
60852;BME280;48553;50.766;2.900;2023-07-24T15:52:32;99823.03;;;21.42;69.19
60852;BME280;48553;50.766;2.900;2023-07-24T15:55:32;99823.41;;;21.44;68.59
60852;BME280;48553;50.766;2.900;2023-07-24T15:58:33;99822.63;;;21.44;68.49
60852;BME280;48553;50.766;2.900;2023-07-24T16:01:33;99832.19;;;21.43;68.59